KAGC/AGC METAR and TAF weather

Enter ICAO airport designator
Station Type Date Time Source
KAGC METAR 2018/01/16 08:53 UTC NOAA

KAGC 160853Z 23005KT 8SM OVC039 M03/M06 A3031 RMK AO2 SNB30E48 SLP286 P0000 60000 T10331056 51011


Station Type Date Time Source
KAGC Decoded METAR 2018/01/16 08:53 UTC NOAA

PITTSBURGH ALLEGHENY CTY., PA, United States (KAGC) 40-21N 079-55W 389M
Jan 16, 2018 - 03:53 AM EST / 2018.01.16 0853 UTC
Wind: from the SW (230 degrees) at 6 MPH (5 KT):0
Visibility: 8 mile(s):0
Sky conditions: overcast
Precipitation last hour: A trace
Temperature: 26.1 F (-3.3 C)
Windchill: 19 F (-7 C):1
Dew Point: 21.9 F (-5.6 C)
Relative Humidity: 84%
Pressure (altimeter): 30.31 in. Hg (1026 hPa)
Pressure tendency: 0.03 inches (1.1 hPa) higher than three hours ago
ob: KAGC 160853Z 23005KT 8SM OVC039 M03/M06 A3031 RMK AO2 SNB30E48 SLP286 P0000 60000 T10331056 51011
cycle: 9

Station Type Date Time Source
KAGC TAF 2018/01/16 06:22 UTC NOAA

TAF KAGC 160520Z 1606/1706 17006KT 3SM -SN OVC025
TEMPO 1606/1610 2SM -SN OVC015
FM161000 21005KT 6SM -SN OVC008
FM161800 24007KT 6SM -SN OVC015
FM170200 28010KT P6SM OVC025


Example: see airport list